Time;durP1;ratioP1;P1;durP2;ratioP2;P2;SDS_P1;SDS_P2;PMS_P1;PMS_P2;Temp;Humidity;BMP_temperature;BMP_pressure;BME280_temperature;BME280_humidity;BME280_pressure;Samples;Min_cycle;Max_cycle;Signal;HPM_P1;HPM_P2
2023/05/07 00:01:27;;;;;;;7.65;2.00;;;;;;;2.01;100.00;99895.69;5160406;27;20053;-62
2023/05/07 00:03:53;;;;;;;2.70;1.85;;;;;;;2.41;100.00;99885.41;5159903;27;20050;-58
2023/05/07 00:06:19;;;;;;;2.53;2.05;;;;;;;2.40;100.00;99897.31;5160247;27;20081;-61
2023/05/07 00:08:45;;;;;;;5.82;2.20;;;;;;;2.33;100.00;99895.81;5159864;27;20133;-62
2023/05/07 00:11:11;;;;;;;4.13;2.20;;;;;;;2.55;100.00;99902.50;5160375;27;20327;-64
2023/05/07 00:13:37;;;;;;;3.97;1.88;;;;;;;2.68;100.00;99903.69;5159935;27;20062;-65
2023/05/07 00:16:03;;;;;;;4.45;2.78;;;;;;;2.40;100.00;99911.66;5160180;27;20133;-62
2023/05/07 00:18:30;;;;;;;3.15;1.95;;;;;;;2.49;100.00;99911.81;5159709;27;20065;-64
2023/05/07 00:20:56;;;;;;;2.38;1.83;;;;;;;2.54;100.00;99911.75;5159606;27;20424;-63
2023/05/07 00:23:22;;;;;;;1.83;1.60;;;;;;;2.38;100.00;99911.16;5159901;27;20146;-60
2023/05/07 00:25:48;;;;;;;8.07;2.60;;;;;;;2.37;100.00;99917.66;5159806;27;20057;-53
2023/05/07 00:28:14;;;;;;;5.55;2.67;;;;;;;2.51;100.00;99905.00;5159552;27;20496;-54
2023/05/07 00:30:40;;;;;;;4.88;2.30;;;;;;;2.37;100.00;99909.53;5160269;27;20102;-57
2023/05/07 00:33:06;;;;;;;3.13;1.92;;;;;;;2.19;100.00;99900.31;5161516;27;20083;-64
2023/05/07 00:35:32;;;;;;;2.85;1.83;;;;;;;2.33;100.00;99905.78;5161185;27;20093;-64
2023/05/07 00:37:58;;;;;;;5.68;2.17;;;;;;;2.32;100.00;99898.78;5159476;27;20436;-64
2023/05/07 00:40:24;;;;;;;3.60;1.80;;;;;;;2.02;100.00;99889.97;5159837;27;20097;-64
2023/05/07 00:42:50;;;;;;;3.40;1.92;;;;;;;2.19;100.00;99907.63;5159422;27;20061;-59
2023/05/07 00:45:16;;;;;;;2.65;2.15;;;;;;;2.09;100.00;99895.81;5159853;27;20424;-57
2023/05/07 00:47:43;;;;;;;2.97;1.92;;;;;;;2.10;100.00;99897.47;5159189;27;20047;-63
2023/05/07 00:50:10;;;;;;;1.85;1.70;;;;;;;2.22;100.00;99907.03;5159011;27;20141;-57
2023/05/07 00:52:37;;;;;;;2.65;2.33;;;;;;;2.32;100.00;99910.41;5158538;27;20061;-56
2023/05/07 00:55:06;;;;;;;3.25;2.05;;;;;;;1.85;100.00;99909.38;5159107;27;20085;-62
2023/05/07 00:57:36;;;;;;;2.05;1.85;;;;;;;2.24;100.00;99894.84;5159457;27;20053;-63
2023/05/07 01:00:02;;;;;;;4.90;1.83;;;;;;;2.06;100.00;99906.44;5159070;27;20058;-59
2023/05/07 01:02:28;;;;;;;5.30;2.00;;;;;;;2.11;100.00;99904.47;5159498;27;20082;-66
2023/05/07 01:04:55;;;;;;;5.53;1.95;;;;;;;2.15;100.00;99906.59;5158993;27;20186;-63
2023/05/07 01:07:22;;;;;;;3.85;2.17;;;;;;;1.89;100.00;99910.41;5159356;27;20483;-61
2023/05/07 01:09:49;;;;;;;2.95;2.00;;;;;;;1.79;100.00;99904.31;5159226;27;20146;-61
2023/05/07 01:12:16;;;;;;;3.15;1.80;;;;;;;1.86;100.00;99881.25;5159313;27;20145;-67
2023/05/07 01:14:42;;;;;;;2.90;2.10;;;;;;;1.92;100.00;99908.22;5159106;27;20046;-64
2023/05/07 01:17:08;;;;;;;3.30;2.00;;;;;;;1.85;100.00;99906.69;5159137;27;20053;-62
2023/05/07 01:19:34;;;;;;;3.97;2.22;;;;;;;1.94;100.00;99906.84;5159125;27;20138;-57
2023/05/07 01:22:07;;;;;;;2.67;1.90;;;;;;;1.70;100.00;99906.88;5158938;27;20058;-64
2023/05/07 01:24:36;;;;;;;3.47;1.95;;;;;;;1.47;100.00;99910.38;5159105;27;20106;-56
2023/05/07 01:27:02;;;;;;;2.90;2.00;;;;;;;1.64;100.00;99900.72;5158785;27;20211;-64
2023/05/07 01:29:28;;;;;;;2.85;1.80;;;;;;;1.65;100.00;99891.50;5158845;27;20086;-62
2023/05/07 01:31:56;;;;;;;2.40;1.92;;;;;;;1.49;100.00;99891.97;5158689;27;20088;-62
2023/05/07 01:34:24;;;;;;;3.10;1.98;;;;;;;1.57;100.00;99894.84;5158977;27;20141;-53
2023/05/07 01:36:51;;;;;;;3.78;1.85;;;;;;;1.68;100.00;99883.91;5158479;27;20138;-57
2023/05/07 01:39:17;;;;;;;2.78;1.92;;;;;;;1.59;100.00;99883.75;5158914;27;20141;-62
2023/05/07 01:41:45;;;;;;;5.00;2.20;;;;;;;1.50;100.00;99880.88;5158416;27;20066;-67
2023/05/07 01:44:13;;;;;;;4.00;2.10;;;;;;;1.42;100.00;99882.28;5158354;27;20142;-64
2023/05/07 01:46:39;;;;;;;5.05;2.10;;;;;;;1.40;100.00;99870.19;5158650;27;20050;-57
2023/05/07 01:49:05;;;;;;;4.90;1.88;;;;;;;1.44;100.00;99871.22;5158413;27;20103;-55
2023/05/07 01:51:32;;;;;;;4.25;1.80;;;;;;;1.27;100.00;99854.66;5158654;27;20483;-55
2023/05/07 01:53:57;;;;;;;2.67;2.10;;;;;;;1.57;100.00;99856.22;5158338;27;20046;-55
2023/05/07 01:56:25;;;;;;;5.13;2.30;;;;;;;1.43;100.00;99866.88;5158643;27;20053;-57
2023/05/07 01:58:52;;;;;;;4.32;1.98;;;;;;;1.40;100.00;99860.19;5158217;27;20416;-56
2023/05/07 02:01:18;;;;;;;4.57;2.22;;;;;;;1.32;100.00;99860.00;5158533;27;20108;-64
2023/05/07 02:03:44;;;;;;;5.15;2.20;;;;;;;1.33;100.00;99865.13;5157874;27;20385;-60
2023/05/07 02:06:10;;;;;;;3.33;1.95;;;;;;;1.29;100.00;99853.25;5158479;27;20054;-60
2023/05/07 02:08:36;;;;;;;2.95;1.90;;;;;;;1.32;100.00;99854.59;5157935;27;20076;-59
2023/05/07 02:11:02;;;;;;;4.13;2.78;;;;;;;1.20;100.00;99846.88;5158404;27;20054;-62
2023/05/07 02:13:30;;;;;;;5.57;2.45;;;;;;;1.28;100.00;99851.66;5158269;27;20145;-65
2023/05/07 02:15:56;;;;;;;6.50;2.72;;;;;;;1.17;100.00;99850.16;5158297;27;20130;-53
2023/05/07 02:18:22;;;;;;;4.43;1.92;;;;;;;1.21;100.00;99843.09;5158244;27;20190;-59
2023/05/07 02:20:48;;;;;;;3.97;2.17;;;;;;;1.27;100.00;99843.84;5158037;27;20092;-56
2023/05/07 02:23:14;;;;;;;5.80;1.80;;;;;;;1.12;100.00;99829.38;5158041;27;20495;-59
2023/05/07 02:25:40;;;;;;;5.30;1.95;;;;;;;1.08;100.00;99835.66;5157948;27;20134;-60
2023/05/07 02:28:06;;;;;;;2.78;1.90;;;;;;;1.16;100.00;99829.63;5158189;27;20042;-63
2023/05/07 02:30:32;;;;;;;6.68;2.22;;;;;;;1.02;100.00;99823.28;5157747;27;20051;-65
2023/05/07 02:32:59;;;;;;;5.85;2.35;;;;;;;1.02;100.00;99817.91;5158044;27;20046;-61
2023/05/07 02:35:25;;;;;;;4.30;2.55;;;;;;;1.04;100.00;99816.53;5157682;27;20148;-59
2023/05/07 02:37:51;;;;;;;9.25;2.75;;;;;;;0.93;100.00;99817.69;5158125;27;20054;-59
2023/05/07 02:40:17;;;;;;;9.45;2.90;;;;;;;1.04;100.00;99813.03;5157570;27;20411;-56
2023/05/07 02:42:43;;;;;;;6.80;2.35;;;;;;;1.18;100.00;99812.03;5157793;27;20153;-55
2023/05/07 02:45:10;;;;;;;4.35;2.40;;;;;;;1.23;100.00;99824.69;5157593;27;20241;-58
2023/05/07 02:47:36;;;;;;;6.65;2.25;;;;;;;1.21;100.00;99821.47;5157521;27;20057;-65
2023/05/07 02:50:03;;;;;;;4.18;2.53;;;;;;;1.18;100.00;99830.94;5157781;27;20146;-66
2023/05/07 02:52:29;;;;;;;4.07;2.70;;;;;;;1.03;100.00;99836.50;5157435;27;20047;-59
2023/05/07 02:54:55;;;;;;;5.75;2.38;;;;;;;1.27;100.00;99835.75;5157842;27;20100;-66
2023/05/07 02:57:21;;;;;;;5.07;2.70;;;;;;;1.44;100.00;99836.09;5157428;27;20475;-64
2023/05/07 02:59:47;;;;;;;5.63;3.03;;;;;;;1.50;100.00;99845.75;5157742;27;20047;-61
2023/05/07 03:02:13;;;;;;;5.28;3.00;;;;;;;1.57;100.00;99840.00;5157360;27;20047;-57
2023/05/07 03:04:39;;;;;;;4.35;2.72;;;;;;;1.62;100.00;99853.44;5157782;27;20050;-56
2023/05/07 03:07:06;;;;;;;4.32;2.90;;;;;;;2.09;100.00;99870.69;5157213;27;20129;-64
2023/05/07 03:09:32;;;;;;;6.10;2.92;;;;;;;2.40;100.00;99887.31;5157703;27;20056;-61
2023/05/07 03:11:58;;;;;;;3.10;2.50;;;;;;;3.08;100.00;99915.75;5157261;27;20088;-61
2023/05/07 03:14:24;;;;;;;6.05;3.63;;;;;;;3.17;100.00;99943.00;5158437;27;20138;-63
2023/05/07 03:16:50;;;;;;;3.80;2.35;;;;;;;3.41;100.00;99968.06;5161128;27;20074;-65
2023/05/07 03:19:16;;;;;;;2.80;2.22;;;;;;;3.99;100.00;99966.72;5160916;27;20054;-58
2023/05/07 03:21:42;;;;;;;4.15;2.20;;;;;;;4.59;100.00;99991.00;5160936;27;20495;-60
2023/05/07 03:24:09;;;;;;;3.97;2.40;;;;;;;4.39;100.00;100003.09;5160773;27;20197;-64
2023/05/07 03:26:35;;;;;;;8.77;2.30;;;;;;;4.75;100.00;100015.13;5160801;27;20042;-64
2023/05/07 03:29:01;;;;;;;14.10;2.47;;;;;;;4.85;100.00;100012.97;5160581;27;20135;-62
2023/05/07 03:31:26;;;;;;;2.88;2.08;;;;;;;5.66;91.40;100029.28;5161031;27;20046;-62
2023/05/07 03:33:54;;;;;;;2.58;2.22;;;;;;;5.59;88.62;100045.22;5160529;27;20047;-59
2023/05/07 03:36:21;;;;;;;4.20;2.30;;;;;;;4.94;92.43;100041.03;5160948;27;20129;-58
2023/05/07 03:38:47;;;;;;;5.25;2.65;;;;;;;5.19;93.25;100047.78;5160365;27;20361;-56
2023/05/07 03:41:13;;;;;;;4.05;2.75;;;;;;;5.60;91.91;100043.31;5160603;27;20062;-62
2023/05/07 03:43:39;;;;;;;5.28;2.88;;;;;;;5.01;90.39;100061.56;5160457;27;20391;-59
2023/05/07 03:46:05;;;;;;;5.05;2.72;;;;;;;5.07;93.03;100047.53;5160245;27;20053;-63
2023/05/07 03:48:31;;;;;;;8.00;2.70;;;;;;;5.31;90.89;100055.41;5160550;27;20047;-64
2023/05/07 03:50:58;;;;;;;4.63;2.72;;;;;;;5.16;94.07;100056.59;5160378;27;20089;-66
2023/05/07 03:53:24;;;;;;;2.67;2.35;;;;;;;5.42;93.63;100059.50;5160445;27;20395;-63
2023/05/07 03:55:50;;;;;;;3.83;2.53;;;;;;;5.27;93.41;100065.31;5160253;27;20133;-57
2023/05/07 03:58:16;;;;;;;4.85;2.90;;;;;;;5.60;91.41;100059.63;5160593;27;20046;-61
2023/05/07 04:00:42;;;;;;;5.93;2.90;;;;;;;4.77;93.98;100054.47;5160032;27;20342;-63
2023/05/07 04:03:08;;;;;;;4.78;2.80;;;;;;;5.61;93.04;100058.50;5160555;27;20423;-65
2023/05/07 04:05:34;;;;;;;4.68;3.00;;;;;;;5.62;90.73;100071.78;5160039;27;20051;-65
2023/05/07 04:08:01;;;;;;;5.40;3.20;;;;;;;6.01;86.90;100078.47;5162043;27;20171;-61
2023/05/07 04:10:28;;;;;;;4.80;3.25;;;;;;;6.18;86.82;100072.31;5163047;27;20118;-64
2023/05/07 04:12:53;;;;;;;5.75;2.90;;;;;;;6.39;85.42;100086.19;5159931;27;20157;-65
2023/05/07 04:15:20;;;;;;;3.58;2.78;;;;;;;6.81;80.17;100089.38;5160220;27;20046;-57
2023/05/07 04:17:46;;;;;;;8.57;2.60;;;;;;;6.96;78.39;100097.09;5159960;27;20110;-60
2023/05/07 04:20:15;;;;;;;4.85;2.75;;;;;;;7.26;77.28;100097.28;5160166;27;20111;-58
2023/05/07 04:22:41;;;;;;;3.60;2.67;;;;;;;7.06;75.99;100104.16;5159837;27;20046;-59
2023/05/07 04:25:09;;;;;;;4.60;2.65;;;;;;;7.73;74.87;100098.28;5159996;27;20057;-61
2023/05/07 04:27:35;;;;;;;3.75;2.80;;;;;;;8.10;72.11;100119.75;5159726;27;20054;-59
2023/05/07 04:30:02;;;;;;;10.45;2.95;;;;;;;8.38;70.25;100109.22;5159965;27;20146;-64
2023/05/07 04:32:29;;;;;;;5.63;2.60;;;;;;;8.96;69.52;100102.19;5159570;27;20400;-56
2023/05/07 04:34:55;;;;;;;3.90;2.58;;;;;;;8.36;68.85;100105.97;5159348;27;20057;-54
2023/05/07 04:37:21;;;;;;;5.35;2.47;;;;;;;9.39;66.93;100107.38;5159802;27;20137;-62
2023/05/07 04:39:47;;;;;;;5.57;2.40;;;;;;;9.49;66.33;100111.63;5159659;27;20145;-64
2023/05/07 04:42:15;;;;;;;6.00;2.72;;;;;;;9.18;65.11;100117.50;5159735;27;20118;-54
2023/05/07 04:44:41;;;;;;;7.20;2.78;;;;;;;9.65;63.06;100120.06;5159516;27;20062;-56
2023/05/07 04:47:07;;;;;;;3.47;2.50;;;;;;;10.06;61.79;100119.19;5159704;27;20110;-60
2023/05/07 04:49:33;;;;;;;4.63;2.42;;;;;;;10.49;61.60;100125.34;5159328;27;20118;-61
2023/05/07 04:51:59;;;;;;;4.68;2.45;;;;;;;10.29;62.07;100127.81;5159623;27;20137;-58
2023/05/07 04:54:26;;;;;;;5.00;2.53;;;;;;;10.13;61.08;100127.66;5159261;27;20349;-62
2023/05/07 04:56:52;;;;;;;3.17;2.67;;;;;;;10.11;60.79;100120.91;5159825;27;20122;-62
2023/05/07 04:59:18;;;;;;;7.47;2.70;;;;;;;10.99;59.83;100125.03;5159104;27;20089;-62
2023/05/07 05:01:44;;;;;;;11.18;2.63;;;;;;;10.93;58.73;100131.09;5159594;27;20042;-63
2023/05/07 05:04:10;;;;;;;3.13;2.30;;;;;;;11.23;59.15;100129.72;5159033;27;20046;-64
2023/05/07 05:06:36;;;;;;;4.30;2.30;;;;;;;10.66;59.02;100136.09;5159183;27;20198;-56
2023/05/07 05:09:04;;;;;;;4.07;2.10;;;;;;;10.94;60.18;100144.47;5159164;27;20042;-55
2023/05/07 05:11:30;;;;;;;6.28;2.63;;;;;;;10.57;60.92;100149.16;5159136;27;20058;-63
2023/05/07 05:13:56;;;;;;;3.60;2.10;;;;;;;10.00;58.72;100145.19;5159190;27;20050;-65
2023/05/07 05:16:22;;;;;;;2.38;2.17;;;;;;;10.57;59.47;100138.97;5159033;27;20051;-63
2023/05/07 05:18:48;;;;;;;4.18;2.47;;;;;;;11.48;58.42;100143.38;5159018;27;20408;-60
2023/05/07 05:21:14;;;;;;;2.97;2.55;;;;;;;11.31;57.46;100142.50;5158902;27;20061;-57
2023/05/07 05:23:40;;;;;;;6.15;3.10;;;;;;;11.84;56.89;100145.25;5159132;27;20042;-56
2023/05/07 05:26:07;;;;;;;5.85;2.60;;;;;;;10.80;57.93;100153.06;5158644;27;20046;-63
2023/05/07 05:28:33;;;;;;;8.88;2.72;;;;;;;11.97;56.30;100146.78;5159093;27;20099;-63
2023/05/07 05:30:59;;;;;;;5.75;3.05;;;;;;;12.69;54.89;100137.66;5158641;27;20347;-61
2023/05/07 05:33:25;;;;;;;4.03;2.70;;;;;;;12.37;55.87;100150.59;5159158;27;20077;-64
2023/05/07 05:35:51;;;;;;;2.92;2.58;;;;;;;12.42;55.28;100153.09;5158678;27;20057;-60
2023/05/07 05:38:17;;;;;;;7.60;2.97;;;;;;;11.61;55.46;100146.91;5158102;27;20061;-57
2023/05/07 05:40:43;;;;;;;6.45;2.53;;;;;;;12.46;55.70;100145.72;5158715;27;20393;-54
2023/05/07 05:43:09;;;;;;;3.97;2.70;;;;;;;12.83;54.33;100134.44;5158582;27;20129;-56
2023/05/07 05:45:35;;;;;;;2.75;2.45;;;;;;;12.87;54.79;100146.38;5158510;27;20415;-56
2023/05/07 05:48:01;;;;;;;3.50;2.75;;;;;;;11.95;55.40;100146.34;5158356;27;20086;-54
2023/05/07 05:50:27;;;;;;;3.72;2.72;;;;;;;12.62;54.83;100149.28;5158515;27;20078;-59
2023/05/07 05:52:53;;;;;;;4.78;2.83;;;;;;;12.16;54.73;100151.63;5158298;27;20091;-57
2023/05/07 05:55:20;;;;;;;2.95;2.53;;;;;;;12.90;54.05;100149.22;5158601;27;20106;-61
2023/05/07 05:57:46;;;;;;;3.33;2.42;;;;;;;11.40;54.85;100158.06;5158020;27;20097;-63
2023/05/07 06:00:13;;;;;;;3.58;2.60;;;;;;;12.19;54.33;100159.16;5157976;27;20055;-60
2023/05/07 06:02:39;;;;;;;4.28;2.08;;;;;;;11.80;53.74;100154.50;5157824;27;20099;-64
2023/05/07 06:05:06;;;;;;;3.90;2.88;;;;;;;12.43;53.52;100160.22;5158254;27;20054;-60
2023/05/07 06:07:32;;;;;;;3.08;2.45;;;;;;;12.98;52.66;100152.91;5158046;27;20050;-57
2023/05/07 06:09:58;;;;;;;3.40;2.28;;;;;;;12.71;52.13;100151.88;5157979;27;20051;-57
2023/05/07 06:12:24;;;;;;;3.13;2.83;;;;;;;13.12;52.28;100149.69;5157984;27;20197;-61
2023/05/07 06:14:50;;;;;;;3.10;2.30;;;;;;;13.31;52.28;100149.00;5157651;27;20047;-64
2023/05/07 06:17:16;;;;;;;2.65;1.80;;;;;;;12.79;52.13;100150.88;5157958;27;20057;-62
2023/05/07 06:19:42;;;;;;;3.08;2.17;;;;;;;13.88;50.79;100148.25;5157763;27;20074;-62
2023/05/07 06:22:08;;;;;;;3.00;1.92;;;;;;;12.23;50.98;100146.34;5157988;27;20042;-64
2023/05/07 06:24:34;;;;;;;2.30;2.10;;;;;;;11.95;52.67;100151.84;5157605;27;20042;-64
2023/05/07 06:27:00;;;;;;;2.72;2.05;;;;;;;12.89;51.82;100144.84;5158001;27;20055;-63
2023/05/07 06:29:25;;;;;;;3.50;2.20;;;;;;;12.33;52.12;100153.28;5157480;27;20111;-60
2023/05/07 06:31:52;;;;;;;2.53;1.77;;;;;;;11.94;51.36;100146.69;5157917;27;20191;-59
2023/05/07 06:34:18;;;;;;;3.30;2.28;;;;;;;11.80;51.03;100155.31;5157323;27;20438;-57
2023/05/07 06:36:44;;;;;;;5.78;1.65;;;;;;;12.22;50.64;100161.22;5157554;27;20047;-54
2023/05/07 06:39:10;;;;;;;1.70;1.60;;;;;;;11.27;51.93;100151.78;5157712;27;20070;-55
2023/05/07 06:41:36;;;;;;;5.38;1.77;;;;;;;11.12;52.46;100158.75;5157607;27;20042;-58
2023/05/07 06:44:02;;;;;;;1.48;1.38;;;;;;;11.57;49.83;100163.28;5157636;27;20047;-62
2023/05/07 06:46:28;;;;;;;1.50;1.40;;;;;;;11.28;50.90;100162.41;5157512;27;20057;-65
2023/05/07 06:48:56;;;;;;;1.60;1.50;;;;;;;11.78;50.66;100171.34;5157850;27;20117;-60
2023/05/07 06:51:22;;;;;;;1.70;1.60;;;;;;;12.14;50.93;100162.19;5161093;27;20095;-63
2023/05/07 06:53:48;;;;;;;2.47;1.83;;;;;;;12.32;48.58;100168.16;5161148;27;20395;-57
2023/05/07 06:56:14;;;;;;;2.08;1.35;;;;;;;11.96;49.50;100182.84;5160824;27;20125;-59
2023/05/07 06:58:40;;;;;;;3.30;1.80;;;;;;;11.96;50.04;100166.38;5161336;27;20096;-65
2023/05/07 07:01:06;;;;;;;5.07;1.85;;;;;;;11.84;51.13;100163.66;5160823;27;20106;-66
2023/05/07 07:03:32;;;;;;;2.10;2.00;;;;;;;13.56;50.50;100152.28;5161398;27;20046;-58
2023/05/07 07:05:59;;;;;;;3.30;2.17;;;;;;;13.63;48.33;100161.50;5160818;27;20050;-59
2023/05/07 07:08:25;;;;;;;1.50;1.40;;;;;;;13.56;48.40;100157.78;5161120;27;20297;-57
2023/05/07 07:10:51;;;;;;;1.60;1.50;;;;;;;13.94;48.91;100142.44;5160838;27;20150;-56
2023/05/07 07:13:16;;;;;;;2.38;1.70;;;;;;;13.75;48.35;100162.53;5160985;27;20074;-60
2023/05/07 07:15:43;;;;;;;3.97;2.30;;;;;;;14.32;47.77;100152.63;5161084;27;20073;-62
2023/05/07 07:18:09;;;;;;;7.35;2.03;;;;;;;14.08;47.71;100162.00;5160858;27;20133;-55
2023/05/07 07:20:35;;;;;;;8.23;2.20;;;;;;;14.25;48.80;100161.56;5160921;27;20458;-56
2023/05/07 07:23:02;;;;;;;2.17;1.83;;;;;;;14.85;47.83;100163.03;5160697;27;20058;-57
2023/05/07 07:25:28;;;;;;;2.28;1.65;;;;;;;14.55;47.08;100158.97;5160806;27;20047;-59
2023/05/07 07:27:54;;;;;;;2.90;1.75;;;;;;;13.05;47.86;100164.09;5160846;27;20340;-56
2023/05/07 07:30:19;;;;;;;3.47;1.67;;;;;;;12.51;48.99;100161.97;5161052;27;20415;-58
2023/05/07 07:32:45;;;;;;;2.33;1.85;;;;;;;12.64;49.84;100158.00;5162079;27;20051;-64
2023/05/07 07:35:11;;;;;;;3.55;2.40;;;;;;;13.68;48.94;100154.91;5162625;27;20445;-58
2023/05/07 07:37:37;;;;;;;1.95;1.85;;;;;;;12.60;49.20;100156.31;5160833;27;20111;-61
2023/05/07 07:40:05;;;;;;;2.40;1.88;;;;;;;13.89;48.58;100160.06;5160637;27;20437;-63
2023/05/07 07:42:31;;;;;;;1.80;1.70;;;;;;;12.45;49.67;100155.94;5160742;27;20191;-60
2023/05/07 07:44:57;;;;;;;2.17;1.40;;;;;;;13.14;50.22;100161.16;5160535;27;20425;-59
2023/05/07 07:47:23;;;;;;;2.28;1.80;;;;;;;12.51;49.27;100156.47;5160821;27;20395;-63
2023/05/07 07:49:49;;;;;;;3.15;1.85;;;;;;;13.65;48.89;100150.91;5160222;27;20138;-63
2023/05/07 07:52:15;;;;;;;2.42;1.92;;;;;;;14.59;47.10;100162.63;5160470;27;20423;-62
2023/05/07 07:54:41;;;;;;;4.53;2.25;;;;;;;12.14;50.32;100158.63;5160293;27;20135;-59
2023/05/07 07:57:07;;;;;;;2.63;1.95;;;;;;;14.22;49.05;100158.72;5160447;27;20137;-55
2023/05/07 07:59:33;;;;;;;3.70;2.10;;;;;;;14.15;48.74;100153.88;5159884;27;20054;-59
2023/05/07 08:01:59;;;;;;;3.78;2.35;;;;;;;12.59;49.31;100157.44;5160360;27;20053;-57
2023/05/07 08:04:25;;;;;;;2.58;2.15;;;;;;;14.23;48.99;100141.84;5160156;27;20454;-57
2023/05/07 08:06:51;;;;;;;2.60;2.17;;;;;;;14.45;47.47;100151.28;5160111;27;20103;-56
2023/05/07 08:09:17;;;;;;;6.25;2.20;;;;;;;14.35;47.63;100146.38;5160203;27;20051;-61
2023/05/07 08:11:43;;;;;;;2.22;1.90;;;;;;;12.40;50.07;100147.16;5160104;27;20070;-63
2023/05/07 08:14:09;;;;;;;3.00;2.80;;;;;;;13.26;49.87;100147.31;5159925;27;20047;-65
2023/05/07 08:16:35;;;;;;;2.08;1.92;;;;;;;13.06;48.63;100151.13;5159778;27;20047;-66
2023/05/07 08:19:01;;;;;;;4.20;2.22;;;;;;;13.29;49.52;100148.53;5160111;27;20092;-65
2023/05/07 08:21:27;;;;;;;2.33;1.70;;;;;;;14.22;49.11;100140.22;5159850;27;20104;-64
2023/05/07 08:23:53;;;;;;;3.03;2.38;;;;;;;13.50;48.97;100151.78;5160044;27;20046;-58
2023/05/07 08:26:20;;;;;;;2.10;1.90;;;;;;;13.65;48.79;100147.38;5159726;27;20057;-63
2023/05/07 08:28:46;;;;;;;3.45;2.45;;;;;;;13.70;48.58;100138.03;5160122;27;20199;-58
2023/05/07 08:31:12;;;;;;;2.38;2.00;;;;;;;14.03;48.52;100146.56;5159474;27;20050;-60
2023/05/07 08:33:38;;;;;;;4.43;2.60;;;;;;;14.29;49.02;100134.03;5159992;27;20156;-59
2023/05/07 08:36:05;;;;;;;4.28;2.00;;;;;;;15.50;48.25;100132.44;5159448;27;20054;-63
2023/05/07 08:38:31;;;;;;;3.40;2.10;;;;;;;14.56;47.08;100132.19;5159705;27;20054;-58
2023/05/07 08:40:57;;;;;;;2.85;2.00;;;;;;;15.88;46.77;100141.63;5159815;27;20073;-59
2023/05/07 08:43:27;;;;;;;6.10;2.90;;;;;;;15.46;47.74;100148.97;5159451;27;20415;-56
2023/05/07 08:45:54;;;;;;;5.00;1.88;;;;;;;13.58;48.64;100159.03;5159769;27;20043;-56
2023/05/07 08:48:25;;;;;;;4.43;2.15;;;;;;;14.64;48.08;100144.16;5159451;27;20305;-60
2023/05/07 08:50:51;;;;;;;4.47;2.78;;;;;;;14.38;47.62;100147.59;5159182;27;20062;-61
2023/05/07 08:53:18;;;;;;;3.55;3.22;;;;;;;14.59;47.67;100128.69;5159226;27;20089;-58
2023/05/07 08:55:45;;;;;;;3.70;2.38;;;;;;;15.31;47.28;100130.59;5159619;27;20050;-56
2023/05/07 08:58:10;;;;;;;5.32;2.20;;;;;;;14.61;47.21;100129.13;5159205;27;20046;-65
2023/05/07 09:00:39;;;;;;;2.22;1.98;;;;;;;13.74;47.41;100133.38;5159592;27;20175;-64
2023/05/07 09:03:05;;;;;;;2.95;2.13;;;;;;;14.45;48.05;100123.69;5159339;27;20165;-65
2023/05/07 09:05:31;;;;;;;3.80;2.20;;;;;;;14.04;48.13;100128.06;5159131;27;20149;-58
2023/05/07 09:07:59;;;;;;;2.33;2.10;;;;;;;14.21;48.45;100115.78;5159006;27;20043;-61
2023/05/07 09:10:26;;;;;;;3.22;2.17;;;;;;;14.11;48.78;100125.44;5159043;27;20137;-54
2023/05/07 09:12:52;;;;;;;2.55;2.35;;;;;;;13.47;47.63;100129.66;5158131;27;20046;-60
2023/05/07 09:15:18;;;;;;;5.22;2.28;;;;;;;14.16;47.72;100133.44;5158912;27;20046;-64
2023/05/07 09:17:44;;;;;;;6.45;2.58;;;;;;;14.68;48.04;100117.41;5159253;27;20118;-58
2023/05/07 09:20:10;;;;;;;3.63;3.33;;;;;;;15.30;47.23;100120.72;5158889;27;20065;-62
2023/05/07 09:22:38;;;;;;;2.78;2.00;;;;;;;14.01;48.48;100115.81;5159205;27;20364;-57
2023/05/07 09:25:05;;;;;;;5.78;3.10;;;;;;;13.37;48.16;100123.56;5158842;27;20059;-64
2023/05/07 09:27:31;;;;;;;4.55;2.05;;;;;;;13.37;47.85;100114.50;5159195;27;20478;-58
2023/05/07 09:29:57;;;;;;;2.83;2.22;;;;;;;14.53;47.94;100136.50;5158566;27;20419;-63
2023/05/07 09:32:25;;;;;;;2.65;2.28;;;;;;;14.74;47.78;100127.75;5158858;27;20050;-64
2023/05/07 09:34:50;;;;;;;4.90;2.53;;;;;;;14.51;47.35;100126.97;5158599;27;20050;-57
2023/05/07 09:37:17;;;;;;;3.22;2.25;;;;;;;14.58;47.33;100127.88;5158812;27;20203;-55
2023/05/07 09:39:46;;;;;;;3.17;2.30;;;;;;;14.88;47.39;100127.19;5158849;27;20360;-56
2023/05/07 09:42:14;;;;;;;3.38;2.10;;;;;;;14.31;47.15;100128.97;5158611;27;20054;-64
2023/05/07 09:44:40;;;;;;;4.35;2.33;;;;;;;14.43;46.03;100134.31;5158828;27;20147;-63
2023/05/07 09:47:07;;;;;;;2.92;2.25;;;;;;;14.63;46.74;100123.22;5158453;27;20129;-57
2023/05/07 09:49:35;;;;;;;5.10;2.15;;;;;;;15.77;46.27;100124.91;5158733;27;20379;-61
2023/05/07 09:52:03;;;;;;;2.97;2.08;;;;;;;15.29;45.81;100114.41;5158296;27;20050;-60
2023/05/07 09:54:30;;;;;;;2.72;1.90;;;;;;;15.57;46.47;100113.19;5158847;27;20050;-56
2023/05/07 09:56:57;;;;;;;2.78;2.42;;;;;;;14.56;46.84;100119.19;5158522;27;20051;-57
2023/05/07 09:59:24;;;;;;;6.22;2.25;;;;;;;14.87;46.43;100114.56;5158463;27;20393;-60
2023/05/07 10:01:52;;;;;;;6.93;1.85;;;;;;;14.64;46.82;100122.06;5158357;27;20126;-58
2023/05/07 10:04:20;;;;;;;2.95;1.80;;;;;;;14.65;45.98;100126.44;5158196;27;20056;-60
2023/05/07 10:06:46;;;;;;;5.10;1.92;;;;;;;14.89;45.08;100119.69;5158171;27;20168;-63
2023/05/07 10:09:14;;;;;;;2.08;1.85;;;;;;;14.49;46.13;100112.72;5158091;27;20042;-59
2023/05/07 10:11:40;;;;;;;4.25;2.53;;;;;;;14.70;46.72;100107.59;5158441;27;20057;-64
2023/05/07 10:14:07;;;;;;;3.45;1.90;;;;;;;14.87;47.13;100109.06;5158021;27;20097;-61
2023/05/07 10:16:36;;;;;;;3.70;1.90;;;;;;;14.72;45.61;100115.50;5157915;27;20050;-55
2023/05/07 10:19:03;;;;;;;2.22;1.90;;;;;;;14.70;46.22;100118.63;5157951;27;20050;-57
2023/05/07 10:21:31;;;;;;;1.95;1.85;;;;;;;14.36;45.78;100106.56;5158416;27;20460;-64
2023/05/07 10:23:59;;;;;;;2.63;1.98;;;;;;;14.89;46.12;100105.91;5162085;27;20371;-63
2023/05/07 10:26:28;;;;;;;2.92;2.35;;;;;;;15.02;46.02;100096.25;5164828;27;20047;-58
2023/05/07 10:28:59;;;;;;;4.28;2.40;;;;;;;14.39;45.83;100116.88;5165078;27;20067;-64
2023/05/07 10:31:49;;;;;;;2.83;2.60;;;;;;;14.45;45.98;100098.06;5164901;27;20058;-57
2023/05/07 10:34:19;;;;;;;1.90;1.77;;;;;;;14.92;45.25;100094.13;5165146;27;20349;-62
2023/05/07 10:36:46;;;;;;;5.22;1.80;;;;;;;15.46;45.62;100093.72;5164663;27;20047;-63
2023/05/07 10:39:13;;;;;;;2.58;1.92;;;;;;;15.43;45.14;100097.22;5165040;27;20053;-58
2023/05/07 10:41:39;;;;;;;2.88;2.60;;;;;;;16.26;44.44;100095.41;5164503;27;20047;-57
2023/05/07 10:44:05;;;;;;;2.65;1.92;;;;;;;14.40;45.50;100090.91;5165006;27;20047;-62
2023/05/07 10:46:35;;;;;;;2.08;1.88;;;;;;;15.43;45.76;100111.03;5164713;27;20165;-55
2023/05/07 10:49:11;;;;;;;2.05;1.85;;;;;;;14.15;46.20;100109.75;5164784;27;20356;-57
2023/05/07 10:51:38;;;;;;;3.05;2.08;;;;;;;13.47;47.65;100097.41;5164742;27;20047;-58
2023/05/07 10:54:20;;;;;;;3.03;2.22;;;;;;;13.95;48.08;100089.69;5166761;27;20046;-64
2023/05/07 10:56:47;;;;;;;2.72;2.25;;;;;;;13.60;47.95;100076.81;5166898;27;20141;-60
2023/05/07 10:59:41;;;;;;;2.28;1.88;;;;;;;12.88;48.89;100106.69;5164442;27;20058;-57
2023/05/07 11:02:09;;;;;;;2.33;2.00;;;;;;;12.15;49.80;100095.03;5164736;27;20107;-61
2023/05/07 11:04:36;;;;;;;2.38;2.03;;;;;;;12.05;50.79;100090.06;5164189;27;20287;-57
2023/05/07 11:07:38;;;;;;;4.07;2.25;;;;;;;10.81;50.55;100099.00;5164365;27;20050;-62
2023/05/07 11:10:06;;;;;;;3.15;2.15;;;;;;;11.14;51.69;100071.41;5164290;27;20046;-63
2023/05/07 11:13:02;;;;;;;7.30;2.40;;;;;;;11.61;51.40;100078.22;5164207;27;20042;-60
2023/05/07 11:15:43;;;;;;;5.45;2.08;;;;;;;11.86;52.27;100081.69;5080527;28;20418;-62
2023/05/07 11:18:10;;;;;;;5.55;2.17;;;;;;;12.47;51.46;100082.13;5152728;27;20055;-57
2023/05/07 11:21:04;;;;;;;3.35;2.35;;;;;;;11.42;50.41;100090.63;5163999;27;20046;-57
2023/05/07 11:24:10;;;;;;;3.83;1.95;;;;;;;11.32;50.63;100093.88;5164205;27;20046;-56
2023/05/07 11:26:47;;;;;;;3.20;2.05;;;;;;;11.59;51.12;100075.03;5157405;27;20061;-56
2023/05/07 11:29:14;;;;;;;6.57;2.38;;;;;;;12.16;50.96;100073.84;5164126;27;20051;-59